Time;durP1;ratioP1;P1;durP2;ratioP2;P2;SDS_P1;SDS_P2;PMS_P1;PMS_P2;Temp;Humidity;BMP_temperature;BMP_pressure;BME280_temperature;BME280_humidity;BME280_pressure;Samples;Min_cycle;Max_cycle;Signal;HPM_P1;HPM_P2
2021/12/11 00:00:40;;;;;;;;;;;23.00;50.50;;;;;;5117827;28;19924;-52
2021/12/11 00:03:13;;;;;;;;;;;23.10;50.50;;;;;;5117193;28;20018;-49
2021/12/11 00:05:41;;;;;;;;;;;23.00;50.40;;;;;;5117155;28;19973;-51
2021/12/11 00:08:10;;;;;;;;;;;23.00;50.40;;;;;;5117096;28;20423;-56
2021/12/11 00:10:40;;;;;;;;;;;23.00;50.40;;;;;;5117326;28;20340;-57
2021/12/11 00:13:09;;;;;;;;;;;23.00;50.40;;;;;;5115753;28;20383;-53
2021/12/11 00:15:39;;;;;;;;;;;23.00;50.40;;;;;;5116926;28;20412;-57
2021/12/11 00:18:08;;;;;;;;;;;23.00;50.40;;;;;;5116898;28;19923;-56
2021/12/11 00:20:38;;;;;;;;;;;23.00;50.40;;;;;;5117117;28;19977;-52
2021/12/11 00:23:06;;;;;;;;;;;23.00;50.40;;;;;;5116467;28;19928;-54
2021/12/11 00:25:39;;;;;;;;;;;23.00;50.40;;;;;;5116992;28;20403;-58
2021/12/11 00:28:07;;;;;;;;;;;23.10;50.50;;;;;;5116027;28;20370;-49
2021/12/11 00:30:35;;;;;;;;;;;23.00;50.40;;;;;;5116814;28;19984;-57
2021/12/11 00:33:08;;;;;;;;;;;23.00;50.40;;;;;;5116913;28;19924;-57
2021/12/11 00:35:36;;;;;;;;;;;23.00;50.40;;;;;;5116905;28;19932;-47
2021/12/11 00:38:04;;;;;;;;;;;23.00;50.40;;;;;;5116736;28;19974;-51
2021/12/11 00:40:32;;;;;;;;;;;23.00;50.40;;;;;;5116438;28;19924;-51
2021/12/11 00:43:03;;;;;;;;;;;23.00;50.40;;;;;;5116377;28;20379;-49
2021/12/11 00:45:32;;;;;;;;;;;23.10;50.50;;;;;;5115320;27;19924;-49
2021/12/11 00:48:01;;;;;;;;;;;23.00;50.40;;;;;;5116311;28;19923;-58
2021/12/11 00:50:31;;;;;;;;;;;23.10;50.50;;;;;;5116266;28;19924;-57
2021/12/11 00:53:06;;;;;;;;;;;23.00;50.40;;;;;;5116791;28;20279;-57
2021/12/11 00:55:37;;;;;;;;;;;23.10;51.20;;;;;;5116737;28;19999;-58
2021/12/11 00:58:04;;;;;;;;;;;23.00;50.50;;;;;;5116027;28;20390;-51
2021/12/11 01:00:34;;;;;;;;;;;23.00;51.10;;;;;;5115152;27;19923;-53
2021/12/11 01:03:02;;;;;;;;;;;23.00;50.50;;;;;;5115334;28;19974;-56
2021/12/11 01:05:33;;;;;;;;;;;23.00;50.50;;;;;;5097919;28;19930;-56
2021/12/11 01:08:00;;;;;;;;;;;23.00;50.50;;;;;;5115935;28;19923;-55
2021/12/11 01:10:28;;;;;;;;;;;23.00;50.50;;;;;;5116687;28;19923;-54
2021/12/11 01:13:00;;;;;;;;;;;23.10;50.60;;;;;;5115797;28;20406;-55
2021/12/11 01:15:33;;;;;;;;;;;23.00;50.50;;;;;;5114611;28;19930;-54
2021/12/11 01:20:55;;;;;;;;;;;23.00;50.60;;;;;;5115976;28;19935;-51
2021/12/11 01:26:00;;;;;;;;;;;23.00;50.60;;;;;;5115562;28;19923;-49
2021/12/11 01:28:27;;;;;;;;;;;23.00;50.60;;;;;;5115788;28;20324;-52
2021/12/11 01:30:55;;;;;;;;;;;23.00;50.60;;;;;;5114499;28;20384;-58
2021/12/11 01:33:22;;;;;;;;;;;23.00;50.60;;;;;;5115982;28;19977;-57
2021/12/11 01:35:50;;;;;;;;;;;23.00;50.60;;;;;;5115635;28;19927;-51
2021/12/11 01:38:18;;;;;;;;;;;23.00;50.60;;;;;;5115509;28;19973;-54
2021/12/11 01:40:47;;;;;;;;;;;23.00;50.60;;;;;;5115245;28;19953;-56
2021/12/11 01:43:15;;;;;;;;;;;23.00;50.60;;;;;;5115201;28;19931;-51
2021/12/11 01:45:46;;;;;;;;;;;23.00;50.60;;;;;;5114290;28;19923;-52
2021/12/11 01:48:24;;;;;;;;;;;23.00;50.60;;;;;;5115481;28;20280;-52
2021/12/11 01:50:54;;;;;;;;;;;23.00;50.60;;;;;;5115385;28;19927;-58
2021/12/11 01:53:23;;;;;;;;;;;23.00;50.70;;;;;;5115032;28;20312;-56
2021/12/11 01:55:54;;;;;;;;;;;23.00;50.70;;;;;;5097560;28;19924;-55
2021/12/11 01:58:23;;;;;;;;;;;23.00;50.70;;;;;;5115371;28;19923;-58
2021/12/11 02:00:54;;;;;;;;;;;23.00;50.70;;;;;;5113757;27;19928;-52
2021/12/11 02:03:23;;;;;;;;;;;23.00;50.70;;;;;;5115181;28;19946;-54
2021/12/11 02:05:51;;;;;;;;;;;23.00;50.70;;;;;;5114813;28;19931;-56
2021/12/11 02:08:20;;;;;;;;;;;23.00;50.70;;;;;;5115097;28;19932;-52
2021/12/11 02:10:50;;;;;;;;;;;23.00;50.70;;;;;;5114682;28;20440;-58
2021/12/11 02:13:24;;;;;;;;;;;23.00;50.70;;;;;;5113798;28;19953;-58
2021/12/11 02:15:53;;;;;;;;;;;23.00;50.70;;;;;;5113838;28;19924;-57
2021/12/11 02:18:20;;;;;;;;;;;23.00;50.70;;;;;;5114502;28;19969;-51
2021/12/11 02:20:52;;;;;;;;;;;23.00;50.70;;;;;;5096868;28;19924;-48
2021/12/11 02:23:19;;;;;;;;;;;23.00;50.80;;;;;;5114325;28;19927;-53
2021/12/11 02:25:48;;;;;;;;;;;23.00;50.80;;;;;;5096436;28;19923;-51
2021/12/11 02:28:15;;;;;;;;;;;23.00;50.80;;;;;;5114782;28;19927;-50
2021/12/11 02:30:44;;;;;;;;;;;23.00;50.80;;;;;;5113437;28;19928;-56
2021/12/11 02:33:17;;;;;;;;;;;23.00;50.80;;;;;;5114408;28;19924;-57
2021/12/11 02:35:47;;;;;;;;;;;22.90;50.70;;;;;;5114346;28;19923;-48
2021/12/11 02:38:34;;;;;;;;;;;22.90;50.70;;;;;;5114250;28;19923;-51
2021/12/11 02:41:09;;;;;;;;;;;22.90;50.70;;;;;;5114198;28;19973;-57
2021/12/11 02:43:41;;;;;;;;;;;22.90;50.70;;;;;;5114587;28;20404;-58
2021/12/11 02:46:13;;;;;;;;;;;22.90;50.80;;;;;;5113472;28;19981;-54
2021/12/11 02:48:47;;;;;;;;;;;22.90;50.80;;;;;;5114560;28;19928;-58
2021/12/11 02:51:19;;;;;;;;;;;22.90;50.80;;;;;;5114420;28;20333;-56
2021/12/11 02:53:52;;;;;;;;;;;22.90;50.80;;;;;;5114519;28;19928;-49
2021/12/11 02:56:34;;;;;;;;;;;22.90;50.80;;;;;;5114441;28;20290;-48
2021/12/11 02:59:05;;;;;;;;;;;22.90;50.80;;;;;;5113995;28;19923;-57
2021/12/11 03:01:34;;;;;;;;;;;22.90;50.80;;;;;;5112945;28;19953;-58
2021/12/11 03:04:16;;;;;;;;;;;22.90;50.80;;;;;;5114058;28;19924;-51
2021/12/11 03:06:46;;;;;;;;;;;23.00;50.80;;;;;;5114052;28;19970;-51
2021/12/11 03:09:15;;;;;;;;;;;22.90;50.80;;;;;;5114003;28;19977;-51
2021/12/11 03:11:42;;;;;;;;;;;22.90;50.80;;;;;;5114290;28;19977;-57
2021/12/11 03:14:14;;;;;;;;;;;22.90;50.80;;;;;;5113959;28;19924;-55
2021/12/11 03:16:44;;;;;;;;;;;22.90;50.80;;;;;;5112784;28;19924;-59
2021/12/11 03:19:14;;;;;;;;;;;22.90;50.80;;;;;;5113816;28;19971;-50
2021/12/11 03:21:42;;;;;;;;;;;22.90;50.80;;;;;;5114133;28;19986;-53
2021/12/11 03:24:10;;;;;;;;;;;22.90;50.80;;;;;;5113997;28;20336;-50
2021/12/11 03:26:38;;;;;;;;;;;22.90;50.90;;;;;;5117914;28;19968;-58
2021/12/11 03:29:06;;;;;;;;;;;22.90;50.90;;;;;;5117828;28;19924;-54
2021/12/11 03:31:36;;;;;;;;;;;22.90;50.90;;;;;;5116900;28;19928;-57
2021/12/11 03:34:06;;;;;;;;;;;22.90;50.90;;;;;;5117746;28;19924;-47
2021/12/11 03:36:33;;;;;;;;;;;22.90;50.90;;;;;;5118274;28;19928;-50
2021/12/11 03:39:05;;;;;;;;;;;22.90;50.90;;;;;;5117868;28;19969;-58
2021/12/11 03:41:32;;;;;;;;;;;22.90;50.90;;;;;;5117646;28;19930;-52
2021/12/11 03:43:59;;;;;;;;;;;22.90;50.90;;;;;;5118392;28;19924;-48
2021/12/11 03:46:26;;;;;;;;;;;22.90;50.90;;;;;;5116599;27;20312;-51
2021/12/11 03:48:58;;;;;;;;;;;22.90;50.90;;;;;;5117474;28;20435;-52
2021/12/11 03:51:28;;;;;;;;;;;22.90;51.00;;;;;;5117665;28;19930;-57
2021/12/11 03:53:55;;;;;;;;;;;22.80;50.90;;;;;;5117843;28;19928;-52
2021/12/11 03:56:22;;;;;;;;;;;22.80;50.90;;;;;;5117624;28;19923;-50
2021/12/11 03:58:51;;;;;;;;;;;22.80;50.90;;;;;;5117205;28;19924;-53
2021/12/11 04:01:22;;;;;;;;;;;22.80;50.90;;;;;;5115935;27;19976;-54
2021/12/11 04:03:50;;;;;;;;;;;22.80;50.90;;;;;;5117501;28;19924;-52
2021/12/11 04:06:18;;;;;;;;;;;22.80;50.90;;;;;;5117125;28;19927;-54
2021/12/11 04:08:46;;;;;;;;;;;22.80;51.00;;;;;;5117377;28;19924;-54
2021/12/11 04:11:15;;;;;;;;;;;22.80;51.00;;;;;;5117894;28;19931;-54
2021/12/11 04:13:42;;;;;;;;;;;22.80;51.00;;;;;;5116992;28;19924;-53
2021/12/11 04:16:10;;;;;;;;;;;22.80;51.00;;;;;;5116329;28;19923;-56
2021/12/11 04:18:37;;;;;;;;;;;22.80;51.00;;;;;;5116818;28;19935;-55
2021/12/11 04:21:05;;;;;;;;;;;22.80;51.00;;;;;;5117312;28;19993;-53
2021/12/11 04:23:32;;;;;;;;;;;22.80;51.00;;;;;;5116627;28;19924;-55
2021/12/11 04:26:00;;;;;;;;;;;22.80;51.00;;;;;;5117316;28;19965;-54
2021/12/11 04:28:30;;;;;;;;;;;22.80;51.00;;;;;;5117020;28;19927;-58
2021/12/11 04:31:03;;;;;;;;;;;22.80;51.00;;;;;;5115492;27;19932;-55
2021/12/11 04:33:33;;;;;;;;;;;22.80;51.00;;;;;;5116945;28;20010;-57
2021/12/11 04:36:00;;;;;;;;;;;22.80;51.10;;;;;;5115911;28;19924;-55
2021/12/11 04:38:27;;;;;;;;;;;22.80;51.10;;;;;;5115990;28;19928;-52
2021/12/11 04:40:57;;;;;;;;;;;22.80;51.10;;;;;;5116476;28;20432;-55
2021/12/11 04:43:25;;;;;;;;;;;22.80;51.10;;;;;;5116763;28;20337;-52
2021/12/11 04:45:56;;;;;;;;;;;22.80;51.10;;;;;;5116029;27;19923;-57
2021/12/11 04:48:41;;;;;;;;;;;22.80;51.10;;;;;;5116402;28;20018;-55
2021/12/11 04:53:54;;;;;;;;;;;22.70;51.10;;;;;;5116183;28;19924;-55
2021/12/11 04:57:04;;;;;;;;;;;22.80;51.20;;;;;;5116204;28;19923;-54
2021/12/11 05:05:12;;;;;;;;;;;22.70;51.10;;;;;;5116357;28;20340;-49
2021/12/11 05:07:56;;;;;;;;;;;22.70;51.10;;;;;;5116288;28;19924;-53
2021/12/11 05:10:43;;;;;;;;;;;22.70;51.10;;;;;;5115943;28;19923;-55
2021/12/11 05:13:10;;;;;;;;;;;22.70;51.10;;;;;;5116182;28;19927;-55
2021/12/11 05:15:39;;;;;;;;;;;22.80;51.20;;;;;;5116089;28;20276;-57
2021/12/11 05:18:09;;;;;;;;;;;22.80;51.20;;;;;;5114357;27;19931;-58
2021/12/11 05:20:37;;;;;;;;;;;22.70;51.10;;;;;;5115697;28;19924;-55
2021/12/11 05:23:04;;;;;;;;;;;22.70;51.10;;;;;;5115764;28;20325;-55
2021/12/11 05:25:31;;;;;;;;;;;22.70;51.10;;;;;;5115895;28;19994;-56
2021/12/11 05:27:58;;;;;;;;;;;22.70;51.10;;;;;;5115542;28;19928;-51
2021/12/11 05:30:28;;;;;;;;;;;22.70;51.10;;;;;;5115479;28;19928;-53
2021/12/11 05:32:58;;;;;;;;;;;22.70;51.20;;;;;;5114497;27;19968;-51
2021/12/11 05:35:26;;;;;;;;;;;22.70;51.20;;;;;;5116268;28;19924;-55
2021/12/11 05:37:53;;;;;;;;;;;22.70;51.20;;;;;;5115377;28;19998;-51
2021/12/11 05:40:22;;;;;;;;;;;22.70;51.20;;;;;;5115798;28;19931;-56
2021/12/11 05:42:50;;;;;;;;;;;22.70;51.20;;;;;;5115243;28;19924;-54
2021/12/11 05:45:17;;;;;;;;;;;22.70;51.20;;;;;;5115216;28;19939;-54
2021/12/11 05:47:44;;;;;;;;;;;22.70;51.20;;;;;;5114123;28;19928;-54
2021/12/11 05:50:19;;;;;;;;;;;22.70;51.20;;;;;;5115406;28;19924;-51
2021/12/11 05:52:48;;;;;;;;;;;22.70;51.20;;;;;;5114762;28;19923;-54
2021/12/11 05:55:18;;;;;;;;;;;22.70;51.20;;;;;;5115335;28;19924;-53
2021/12/11 05:57:51;;;;;;;;;;;22.70;51.20;;;;;;5114954;28;19924;-57
2021/12/11 06:00:21;;;;;;;;;;;22.70;51.20;;;;;;5114914;28;19927;-57
2021/12/11 06:02:57;;;;;;;;;;;22.70;51.30;;;;;;5113942;28;19930;-54
2021/12/11 06:05:25;;;;;;;;;;;22.70;51.20;;;;;;5115143;28;19924;-56
2021/12/11 06:07:52;;;;;;;;;;;22.70;51.30;;;;;;5114804;28;19924;-55
2021/12/11 06:10:20;;;;;;;;;;;22.70;51.30;;;;;;5114735;28;19923;-48
2021/12/11 06:12:49;;;;;;;;;;;22.70;51.30;;;;;;5114696;28;19927;-57
2021/12/11 06:15:16;;;;;;;;;;;22.70;51.30;;;;;;5114670;28;19928;-49
2021/12/11 06:17:45;;;;;;;;;;;22.70;51.30;;;;;;5113448;27;19924;-55
2021/12/11 06:20:15;;;;;;;;;;;22.70;51.30;;;;;;5114828;28;20347;-48
2021/12/11 06:22:42;;;;;;;;;;;22.70;51.30;;;;;;5114368;28;19924;-56
2021/12/11 06:25:12;;;;;;;;;;;22.70;51.30;;;;;;5114813;28;19923;-47
2021/12/11 06:27:39;;;;;;;;;;;22.70;51.30;;;;;;5114441;28;19924;-58
2021/12/11 06:30:09;;;;;;;;;;;22.70;51.30;;;;;;5114431;28;19928;-57
2021/12/11 06:32:36;;;;;;;;;;;22.70;51.30;;;;;;5113931;28;20028;-53
2021/12/11 06:35:07;;;;;;;;;;;22.60;51.30;;;;;;5114363;28;19924;-49
2021/12/11 06:37:34;;;;;;;;;;;22.70;51.40;;;;;;5114371;28;19923;-54
2021/12/11 06:40:01;;;;;;;;;;;22.60;51.30;;;;;;5114204;28;19928;-56
2021/12/11 06:42:29;;;;;;;;;;;22.70;51.40;;;;;;5114548;28;20002;-53
2021/12/11 06:44:56;;;;;;;;;;;22.70;51.40;;;;;;5114260;28;19954;-51
2021/12/11 06:47:23;;;;;;;;;;;22.70;51.40;;;;;;5095652;28;19992;-49
2021/12/11 06:49:51;;;;;;;;;;;22.70;51.40;;;;;;5114484;28;19923;-57
2021/12/11 06:52:20;;;;;;;;;;;22.60;51.30;;;;;;5114142;28;19973;-49
2021/12/11 06:54:47;;;;;;;;;;;22.60;51.30;;;;;;5114132;28;20401;-49
2021/12/11 06:57:15;;;;;;;;;;;22.60;51.90;;;;;;5114355;28;20459;-54
2021/12/11 06:59:42;;;;;;;;;;;22.60;51.30;;;;;;5114674;28;19924;-54
2021/12/11 07:02:09;;;;;;;;;;;22.60;51.30;;;;;;5118920;28;20332;-49
2021/12/11 07:04:37;;;;;;;;;;;22.60;51.30;;;;;;5117494;27;19924;-53
2021/12/11 07:07:04;;;;;;;;;;;22.60;51.30;;;;;;5118280;28;19924;-55
2021/12/11 07:09:31;;;;;;;;;;;22.70;51.40;;;;;;5118221;28;20375;-57
2021/12/11 07:11:59;;;;;;;;;;;22.60;51.30;;;;;;5118190;28;19928;-52
2021/12/11 07:14:28;;;;;;;;;;;22.60;51.30;;;;;;5118390;28;19924;-51
2021/12/11 07:16:56;;;;;;;;;;;22.60;51.30;;;;;;5118182;28;19946;-55
2021/12/11 07:19:23;;;;;;;;;;;22.60;51.30;;;;;;5116828;27;19930;-52
2021/12/11 07:21:51;;;;;;;;;;;22.60;51.90;;;;;;5118177;28;19931;-55
2021/12/11 07:24:20;;;;;;;;;;;22.60;51.30;;;;;;5118080;28;20290;-50
2021/12/11 07:26:47;;;;;;;;;;;22.60;51.30;;;;;;5118790;28;20332;-57
2021/12/11 07:29:16;;;;;;;;;;;22.60;51.30;;;;;;5118221;28;20309;-53
2021/12/11 07:31:44;;;;;;;;;;;22.60;51.30;;;;;;5117816;28;19923;-52
2021/12/11 07:34:11;;;;;;;;;;;22.60;51.30;;;;;;5116742;28;19924;-54
2021/12/11 07:36:39;;;;;;;;;;;22.60;51.30;;;;;;5117847;28;20443;-57
2021/12/11 07:39:08;;;;;;;;;;;22.60;51.30;;;;;;5117617;28;19924;-56
2021/12/11 07:41:35;;;;;;;;;;;22.60;51.30;;;;;;5117655;28;19924;-48
2021/12/11 07:44:02;;;;;;;;;;;22.60;51.30;;;;;;5117619;28;19968;-52
2021/12/11 07:46:30;;;;;;;;;;;22.60;51.30;;;;;;5118101;28;19939;-55
2021/12/11 07:48:57;;;;;;;;;;;22.70;51.40;;;;;;5116560;27;19931;-54
2021/12/11 07:51:26;;;;;;;;;;;22.70;51.40;;;;;;5117645;28;19946;-52
2021/12/11 07:53:57;;;;;;;;;;;22.70;51.30;;;;;;5117290;28;19985;-56
2021/12/11 07:56:24;;;;;;;;;;;22.70;51.30;;;;;;5117943;28;19924;-58
2021/12/11 07:58:53;;;;;;;;;;;22.70;51.30;;;;;;5117238;28;19930;-54
2021/12/11 08:01:20;;;;;;;;;;;22.70;51.30;;;;;;5117552;28;20302;-56
2021/12/11 08:03:47;;;;;;;;;;;22.70;51.20;;;;;;5116377;27;19927;-51
2021/12/11 08:06:15;;;;;;;;;;;22.70;51.20;;;;;;5117437;28;19924;-50
2021/12/11 08:08:43;;;;;;;;;;;22.70;51.20;;;;;;5117398;28;19930;-52
2021/12/11 08:11:13;;;;;;;;;;;22.70;51.20;;;;;;5117297;28;19924;-56
2021/12/11 08:13:41;;;;;;;;;;;22.70;51.20;;;;;;5117012;28;19927;-54
2021/12/11 08:16:09;;;;;;;;;;;22.70;51.10;;;;;;5117259;28;19924;-58
2021/12/11 08:18:36;;;;;;;;;;;22.70;51.10;;;;;;5115767;28;19978;-49
2021/12/11 08:21:03;;;;;;;;;;;22.70;51.10;;;;;;5117963;28;19924;-53
2021/12/11 08:23:30;;;;;;;;;;;22.80;51.20;;;;;;5117072;28;19985;-52
2021/12/11 08:25:59;;;;;;;;;;;22.70;51.10;;;;;;5117068;28;19972;-57
2021/12/11 08:28:28;;;;;;;;;;;22.70;51.00;;;;;;5116932;28;19930;-49
2021/12/11 08:30:56;;;;;;;;;;;22.80;51.10;;;;;;5116899;28;20349;-55
2021/12/11 08:33:23;;;;;;;;;;;22.80;51.00;;;;;;5115930;27;19931;-57
2021/12/11 08:35:52;;;;;;;;;;;22.80;51.10;;;;;;5117168;28;19924;-53
2021/12/11 08:38:19;;;;;;;;;;;22.80;51.00;;;;;;5116525;28;19923;-53
2021/12/11 08:40:50;;;;;;;;;;;22.80;51.00;;;;;;5116425;28;19924;-53
2021/12/11 08:43:18;;;;;;;;;;;22.80;51.00;;;;;;5116702;28;19931;-57
2021/12/11 08:45:56;;;;;;;;;;;22.80;51.00;;;;;;5116316;28;19931;-49
2021/12/11 08:48:24;;;;;;;;;;;22.80;51.00;;;;;;5116065;28;19924;-52
2021/12/11 08:50:54;;;;;;;;;;;22.80;50.90;;;;;;5115887;28;19923;-57
2021/12/11 08:53:21;;;;;;;;;;;22.80;50.90;;;;;;5116558;28;19923;-54
2021/12/11 08:55:50;;;;;;;;;;;22.80;50.90;;;;;;5116194;28;20379;-55
2021/12/11 08:58:18;;;;;;;;;;;22.80;50.80;;;;;;5116467;28;19923;-53
2021/12/11 09:00:51;;;;;;;;;;;22.80;50.80;;;;;;5116312;28;19924;-58
2021/12/11 09:03:21;;;;;;;;;;;22.90;50.90;;;;;;5116378;28;19927;-53
2021/12/11 09:06:12;;;;;;;;;;;22.90;50.80;;;;;;5114831;27;19927;-52
2021/12/11 09:08:50;;;;;;;;;;;22.90;50.80;;;;;;5116226;28;19924;-55
2021/12/11 09:11:20;;;;;;;;;;;22.90;50.80;;;;;;5115879;28;19928;-53
2021/12/11 09:14:08;;;;;;;;;;;22.90;50.80;;;;;;5116163;28;20276;-53
2021/12/11 09:16:50;;;;;;;;;;;22.90;50.80;;;;;;5115848;28;19923;-53
2021/12/11 09:19:20;;;;;;;;;;;22.90;50.80;;;;;;5114794;27;19953;-53
2021/12/11 09:21:51;;;;;;;;;;;22.90;50.70;;;;;;5115589;28;19931;-51
2021/12/11 09:24:26;;;;;;;;;;;22.90;50.70;;;;;;5115342;28;19927;-57
2021/12/11 09:26:55;;;;;;;;;;;23.00;50.80;;;;;;5115904;28;19924;-51
2021/12/11 09:29:25;;;;;;;;;;;23.00;50.70;;;;;;5115845;28;19927;-55
2021/12/11 09:32:11;;;;;;;;;;;23.00;50.70;;;;;;5115822;28;19924;-49
2021/12/11 09:34:45;;;;;;;;;;;23.00;50.70;;;;;;5114495;28;19927;-56
2021/12/11 09:37:12;;;;;;;;;;;23.00;50.60;;;;;;5115673;28;19924;-57
2021/12/11 09:39:42;;;;;;;;;;;23.00;50.60;;;;;;5115542;28;20271;-58
2021/12/11 09:42:28;;;;;;;;;;;23.00;50.60;;;;;;5115562;28;19924;-58
2021/12/11 09:45:00;;;;;;;;;;;23.10;50.70;;;;;;5115463;28;19931;-50
2021/12/11 09:47:30;;;;;;;;;;;23.10;50.60;;;;;;5115499;28;19924;-58
2021/12/11 09:50:03;;;;;;;;;;;23.10;50.50;;;;;;5113996;28;20428;-54
2021/12/11 09:52:32;;;;;;;;;;;23.10;50.50;;;;;;5114825;28;19927;-51
2021/12/11 09:55:01;;;;;;;;;;;23.10;50.40;;;;;;5115498;28;19924;-57
2021/12/11 09:57:29;;;;;;;;;;;23.10;50.40;;;;;;5115293;28;19928;-48
2021/12/11 09:59:58;;;;;;;;;;;23.10;50.30;;;;;;5096850;28;20371;-52
2021/12/11 10:02:30;;;;;;;;;;;23.20;50.40;;;;;;5115427;28;19924;-58
2021/12/11 10:05:04;;;;;;;;;;;23.10;50.30;;;;;;5113718;28;19966;-58
2021/12/11 10:07:36;;;;;;;;;;;23.20;50.30;;;;;;5115084;28;19923;-51
2021/12/11 10:10:09;;;;;;;;;;;23.20;50.30;;;;;;5115132;28;19924;-56
2021/12/11 10:12:38;;;;;;;;;;;23.20;50.30;;;;;;5114717;28;19931;-54
2021/12/11 10:15:16;;;;;;;;;;;23.30;50.30;;;;;;5114691;28;19931;-58
2021/12/11 10:17:45;;;;;;;;;;;23.30;50.20;;;;;;5114708;28;19927;-56
2021/12/11 10:20:16;;;;;;;;;;;23.30;50.10;;;;;;5113904;28;19928;-57
2021/12/11 10:22:44;;;;;;;;;;;23.30;50.30;;;;;;5114313;28;19931;-55
2021/12/11 10:25:14;;;;;;;;;;;23.30;50.10;;;;;;5114853;28;20328;-56
2021/12/11 10:27:42;;;;;;;;;;;23.40;50.10;;;;;;5114444;28;19924;-57
2021/12/11 10:30:11;;;;;;;;;;;23.30;50.10;;;;;;5114726;28;19982;-53
2021/12/11 10:32:38;;;;;;;;;;;23.30;50.10;;;;;;5114383;28;19984;-58
2021/12/11 10:35:08;;;;;;;;;;;23.30;50.00;;;;;;5112766;27;19923;-54
2021/12/11 10:37:36;;;;;;;;;;;23.30;50.10;;;;;;5114345;28;20436;-54
2021/12/11 10:40:33;;;;;;;;;;;23.40;50.10;;;;;;5114241;28;20424;-55
2021/12/11 10:43:04;;;;;;;;;;;23.40;50.10;;;;;;5093718;28;20329;-56
2021/12/11 10:45:31;;;;;;;;;;;23.40;50.10;;;;;;5096564;28;20401;-51
2021/12/11 10:48:00;;;;;;;;;;;23.40;50.10;;;;;;5114219;28;19927;-58
2021/12/11 10:50:30;;;;;;;;;;;23.40;50.10;;;;;;5113217;28;19923;-56
2021/12/11 10:52:57;;;;;;;;;;;23.40;50.10;;;;;;5114264;28;19969;-56
2021/12/11 10:55:28;;;;;;;;;;;23.40;50.10;;;;;;5114132;28;19927;-49
2021/12/11 10:57:56;;;;;;;;;;;23.40;50.10;;;;;;5114139;28;19923;-54
2021/12/11 11:00:29;;;;;;;;;;;23.40;50.10;;;;;;5114537;28;20316;-53
2021/12/11 11:02:56;;;;;;;;;;;23.40;50.10;;;;;;5114095;28;20022;-47
2021/12/11 11:05:26;;;;;;;;;;;23.40;50.10;;;;;;5112882;28;19931;-52
2021/12/11 11:07:53;;;;;;;;;;;23.40;50.00;;;;;;5114336;28;20323;-49
2021/12/11 11:10:23;;;;;;;;;;;23.40;50.00;;;;;;5114316;28;19928;-48
2021/12/11 11:12:53;;;;;;;;;;;23.50;50.10;;;;;;5113991;28;20382;-58
2021/12/11 11:15:22;;;;;;;;;;;23.50;50.10;;;;;;5113962;28;19923;-58
2021/12/11 11:17:49;;;;;;;;;;;23.40;50.00;;;;;;5113800;28;19928;-51
2021/12/11 11:20:20;;;;;;;;;;;23.40;50.00;;;;;;5112979;28;19927;-53
2021/12/11 11:22:47;;;;;;;;;;;23.40;50.00;;;;;;5113610;28;19924;-51
2021/12/11 11:25:19;;;;;;;;;;;23.40;49.90;;;;;;5113862;28;20390;-47
2021/12/11 11:27:48;;;;;;;;;;;23.40;49.90;;;;;;5113919;28;19924;-49
2021/12/11 11:30:18;;;;;;;;;;;23.40;50.00;;;;;;5114161;28;19923;-53
2021/12/11 11:32:45;;;;;;;;;;;23.40;49.90;;;;;;5114137;28;20279;-58
2021/12/11 11:35:17;;;;;;;;;;;23.40;49.90;;;;;;5113328;28;19924;-53
2021/12/11 11:37:46;;;;;;;;;;;23.50;50.00;;;;;;5134620;28;20294;-55
2021/12/11 11:40:15;;;;;;;;;;;23.50;50.00;;;;;;5134832;28;19973;-49
2021/12/11 11:42:42;;;;;;;;;;;23.50;50.00;;;;;;5134579;28;19927;-51
2021/12/11 11:45:12;;;;;;;;;;;23.50;50.00;;;;;;5134563;27;19973;-52
2021/12/11 11:47:40;;;;;;;;;;;23.50;50.00;;;;;;5137995;27;19934;-50
2021/12/11 11:50:09;;;;;;;;;;;23.40;49.90;;;;;;5138063;27;20401;-54
2021/12/11 11:52:36;;;;;;;;;;;23.50;49.90;;;;;;5117135;27;19931;-53
2021/12/11 11:55:08;;;;;;;;;;;23.50;49.90;;;;;;5117743;28;19924;-51
2021/12/11 11:57:38;;;;;;;;;;;23.50;49.90;;;;;;5117702;28;19924;-57
2021/12/11 12:00:14;;;;;;;;;;;23.50;49.90;;;;;;5118386;28;19942;-48
2021/12/11 12:02:41;;;;;;;;;;;23.50;49.90;;;;;;5117286;28;20362;-55
2021/12/11 12:05:09;;;;;;;;;;;23.50;49.80;;;;;;5117252;28;19924;-56
2021/12/11 12:07:37;;;;;;;;;;;23.50;49.80;;;;;;5115958;28;20390;-53
2021/12/11 12:10:09;;;;;;;;;;;23.50;49.80;;;;;;5117349;28;19924;-55
2021/12/11 12:12:36;;;;;;;;;;;23.50;49.80;;;;;;5117103;28;20421;-56
2021/12/11 12:15:06;;;;;;;;;;;23.60;49.90;;;;;;5117346;28;19979;-53
2021/12/11 12:17:34;;;;;;;;;;;23.50;49.80;;;;;;5116924;28;19924;-56
2021/12/11 12:20:05;;;;;;;;;;;23.50;49.80;;;;;;5116669;28;20291;-49
2021/12/11 12:22:33;;;;;;;;;;;23.50;49.80;;;;;;5115367;27;19924;-55
2021/12/11 12:25:01;;;;;;;;;;;23.50;49.80;;;;;;5116831;28;19928;-49
2021/12/11 12:27:30;;;;;;;;;;;23.50;50.60;;;;;;5117341;28;20350;-54
2021/12/11 12:30:00;;;;;;;;;;;23.50;50.70;;;;;;5116714;28;19927;-50
2021/12/11 12:32:28;;;;;;;;;;;23.50;50.70;;;;;;5116452;28;19978;-51
2021/12/11 12:34:57;;;;;;;;;;;23.50;50.80;;;;;;5117497;28;19928;-56
2021/12/11 12:37:24;;;;;;;;;;;23.50;51.40;;;;;;5115649;28;19977;-54
2021/12/11 12:39:53;;;;;;;;;;;23.50;51.50;;;;;;5116802;28;19977;-55
2021/12/11 12:42:26;;;;;;;;;;;23.50;51.50;;;;;;5116334;28;19927;-49
2021/12/11 12:44:57;;;;;;;;;;;23.50;51.30;;;;;;5116762;28;19924;-50
2021/12/11 12:47:29;;;;;;;;;;;23.50;51.30;;;;;;5116719;28;19988;-53
2021/12/11 12:49:58;;;;;;;;;;;23.50;51.80;;;;;;5116338;28;19924;-51
2021/12/11 12:52:28;;;;;;;;;;;23.50;51.90;;;;;;5114863;28;19931;-48
2021/12/11 12:54:55;;;;;;;;;;;23.40;51.80;;;;;;5116194;28;20383;-50
2021/12/11 12:57:28;;;;;;;;;;;23.50;51.90;;;;;;5115583;28;19923;-53
2021/12/11 13:00:07;;;;;;;;;;;23.40;51.80;;;;;;5116188;28;19931;-55
2021/12/11 13:02:36;;;;;;;;;;;23.40;52.00;;;;;;5116471;28;19989;-49
2021/12/11 13:05:10;;;;;;;;;;;23.40;52.20;;;;;;5116397;28;19931;-45
2021/12/11 13:07:52;;;;;;;;;;;23.40;52.00;;;;;;5099298;28;19935;-51
2021/12/11 13:10:25;;;;;;;;;;;23.40;52.10;;;;;;5116290;28;19928;-53
2021/12/11 13:12:52;;;;;;;;;;;23.40;52.30;;;;;;5115967;28;19931;-54
2021/12/11 13:15:19;;;;;;;;;;;23.40;52.80;;;;;;5116119;28;19927;-52
2021/12/11 13:17:48;;;;;;;;;;;23.40;52.10;;;;;;5116141;28;19923;-51
2021/12/11 13:20:24;;;;;;;;;;;23.40;52.20;;;;;;5115988;28;19924;-52
2021/12/11 13:22:52;;;;;;;;;;;23.40;52.20;;;;;;5126950;27;19923;-51
2021/12/11 13:25:22;;;;;;;;;;;23.40;52.20;;;;;;5136185;27;19923;-46
2021/12/11 13:27:51;;;;;;;;;;;23.50;52.30;;;;;;5136508;27;20316;-50
2021/12/11 13:30:22;;;;;;;;;;;23.50;52.40;;;;;;5136694;27;20363;-48
2021/12/11 13:32:49;;;;;;;;;;;23.50;52.40;;;;;;5136312;27;19923;-56
2021/12/11 13:35:21;;;;;;;;;;;23.50;52.40;;;;;;5134007;27;20298;-48
2021/12/11 13:37:49;;;;;;;;;;;23.50;52.20;;;;;;5121829;27;19966;-52
2021/12/11 13:40:20;;;;;;;;;;;23.60;52.20;;;;;;5115132;28;19928;-54
2021/12/11 13:42:50;;;;;;;;;;;23.50;52.30;;;;;;5115091;28;19924;-50
2021/12/11 13:45:23;;;;;;;;;;;23.60;52.40;;;;;;5114975;28;20425;-56
2021/12/11 13:47:52;;;;;;;;;;;23.60;53.00;;;;;;5115048;28;19928;-49
2021/12/11 13:50:23;;;;;;;;;;;23.60;52.90;;;;;;5114971;28;19923;-48
2021/12/11 13:52:52;;;;;;;;;;;23.60;52.80;;;;;;5113489;28;20010;-48
2021/12/11 13:55:20;;;;;;;;;;;23.60;52.60;;;;;;5115084;27;19968;-46
2021/12/11 13:57:59;;;;;;;;;;;23.60;52.80;;;;;;5128705;27;19953;-51
2021/12/11 14:00:28;;;;;;;;;;;23.60;53.10;;;;;;5135163;27;19968;-48
2021/12/11 14:03:09;;;;;;;;;;;23.60;52.30;;;;;;5135102;27;19930;-47
2021/12/11 14:05:37;;;;;;;;;;;23.60;52.10;;;;;;5135754;27;19923;-53
2021/12/11 14:08:08;;;;;;;;;;;23.60;52.00;;;;;;5123378;27;19923;-49
2021/12/11 14:10:35;;;;;;;;;;;23.60;51.80;;;;;;5114691;28;20444;-49
2021/12/11 14:13:04;;;;;;;;;;;23.60;51.70;;;;;;5115066;28;19924;-52
2021/12/11 14:15:31;;;;;;;;;;;23.60;51.70;;;;;;5114967;28;20336;-51
2021/12/11 14:17:58;;;;;;;;;;;23.60;51.60;;;;;;5114665;28;19928;-50
2021/12/11 14:20:29;;;;;;;;;;;23.60;51.50;;;;;;5114552;28;19923;-50
2021/12/11 14:22:57;;;;;;;;;;;23.60;51.50;;;;;;5113214;28;19924;-51
2021/12/11 14:25:25;;;;;;;;;;;23.60;51.50;;;;;;5115096;28;19928;-50
2021/12/11 14:27:52;;;;;;;;;;;23.60;51.50;;;;;;5096652;28;19924;-54
2021/12/11 14:30:21;;;;;;;;;;;23.60;51.50;;;;;;5114782;28;19984;-46
2021/12/11 14:32:54;;;;;;;;;;;23.60;51.40;;;;;;5114379;28;20375;-54
2021/12/11 14:35:23;;;;;;;;;;;23.60;51.40;;;;;;5114434;28;19936;-52
2021/12/11 14:37:51;;;;;;;;;;;23.60;51.30;;;;;;5113696;28;20377;-51
2021/12/11 14:40:19;;;;;;;;;;;23.60;51.30;;;;;;5114321;28;19972;-48
2021/12/11 14:42:47;;;;;;;;;;;23.70;51.40;;;;;;5114278;28;19923;-49
2021/12/11 14:45:20;;;;;;;;;;;23.60;51.30;;;;;;5114866;28;19924;-52